Liberty Island — HPUY — position and weather

sailwx.info

Track history (hours):
 
Tides and Currents Weather Stations Pressure Air Temp Water Temp Dewpoint Dewpoint Depression Visibility Wind Speed Wind Dir Waves Ship Positions

Liberty Island

Last reported at 2014-Sep-30 07:33 UTC. Time now 2014-Oct-01 08:21 UTC.
Position N 50°26' W 000°33'.

Length 178 m; draft 9.8 m.

Type: Cargo ship. MMSI: 355886000.

Date/timePositionNaut miles runAvg speedWind from/ knotsBaromVisibWave heightAir tempDewpointWater temp
2014-Sep-30 07:33N 50°26' W 000°33'2612.9
2014-Sep-30 05:32N 50°34' E 000°06'1212.6
2014-Sep-30 04:33N 50°37' E 000°25'1211.8
2014-Sep-30 03:33N 50°42' E 000°42'1111.0
2014-Sep-30 02:33N 50°48' E 000°57'2110.5
2014-Sep-30 00:33N 51°02' E 001°22'1312.9
2014-Sep-29 23:34N 51°10' E 001°38'1313.3
2014-Sep-29 22:34N 51°20' E 001°51'1313.0
2014-Sep-29 21:33N 51°31' E 002°03'1212.3
2014-Sep-29 20:34N 51°40' E 002°16'1211.5
2014-Sep-29 19:33N 51°49' E 002°28'2110.1
2014-Sep-29 17:32N 52°08' E 002°38'12 9.8
2014-Sep-29 16:21N 52°19' E 002°44'810.7
2014-Sep-29 15:33N 52°27' E 002°51'3712.2
2014-Sep-29 12:33N 52°59' E 003°18'5911.9
2014-Sep-29 07:33N 53°53' E 004°02'1211.8
2014-Sep-29 06:34N 54°01' E 004°16'1212.1
2014-Sep-29 05:33N 54°12' E 004°25'1312.5
2014-Sep-29 04:33N 54°23' E 004°36'1312.5
2014-Sep-29 03:31N 54°33' E 004°48'21011.5
2014-Sep-28 09:15N 57°24' E 008°26'3810.3
2014-Sep-28 05:33N 57°42' E 009°29'1010.0
2014-Sep-28 04:31N 57°46' E 009°47'10 9.8
2014-Sep-28 03:32N 57°47' E 010°05'1110.8
2014-Sep-28 02:29N 57°47' E 010°26'910.0
2014-Sep-28 01:33N 57°48' E 010°43'10 9.7
2014-Sep-28 00:31N 57°42' E 010°58'1010.5
2014-Sep-27 23:33N 57°35' E 011°12'1111.0
2014-Sep-27 22:33N 57°28' E 011°27'1211.5
2014-Sep-27 21:33N 57°17' E 011°34'1111.2
2014-Sep-27 20:33N 57°06' E 011°41'137 9.6
2014-Sep-27 06:16N 54°52' E 010°53'7 9.8
2014-Sep-27 05:33N 54°45' E 010°53'9 9.4
2014-Sep-27 04:33N 54°39' E 011°04'10 9.8
2014-Sep-27 03:33N 54°34' E 011°19'10 9.9
2014-Sep-27 02:33N 54°30' E 011°35'1010.4
2014-Sep-27 01:33N 54°27' E 011°52'1010.2
2014-Sep-27 00:33N 54°27' E 012°10'1010.2
2014-Sep-26 23:33N 54°37' E 012°15'9 9.3
2014-Sep-26 22:33N 54°42' E 012°28'1110.5
2014-Sep-26 21:33N 54°48' E 012°44'1110.9
2014-Sep-26 20:33N 54°52' E 013°02'1111.0
2014-Sep-26 19:33N 54°53' E 013°20'1110.8
2014-Sep-26 18:33N 54°53' E 013°39'1111.1
2014-Sep-26 17:33N 54°47' E 013°55'1110.9
2014-Sep-26 16:33N 54°41' E 014°11'1410.7
2014-Sep-26 15:14N 54°39' E 014°35'1110.9
2014-Sep-26 14:13N 54°40' E 014°54'711.3
2014-Sep-26 13:33N 54°42' E 015°07'1211.3
2014-Sep-26 12:30N 54°43' E 015°27'1211.6
2014-Sep-26 11:28N 54°45' E 015°48'3811.8
2014-Sep-26 08:14N 54°51' E 016°53'1311.7
2014-Sep-26 07:10N 54°54' E 017°15'711.7
2014-Sep-26 06:33N 54°56' E 017°27'1111.4
2014-Sep-26 05:33N 54°57' E 017°46'1111.5
2014-Sep-26 04:33N 54°58' E 018°06'1111.1
2014-Sep-26 03:33N 54°59' E 018°26'1010.3
2014-Sep-26 02:33N 54°54' E 018°41'1111.2
2014-Sep-26 01:33N 54°47' E 018°55'1111.1
2014-Sep-26 00:33N 54°36' E 018°54'1211.8
2014-Sep-25 23:33N 54°27' E 018°40'2 2.4
2014-Sep-25 22:33N 54°24' E 018°40'0 0.1
2014-Sep-25 21:33N 54°24' E 018°40'0 0.0
2014-Sep-25 20:33N 54°24' E 018°40'0 0.0
2014-Sep-25 19:33N 54°24' E 018°40'0 0.0
2014-Sep-25 18:33N 54°24' E 018°40'0 0.0
2014-Sep-25 17:33N 54°24' E 018°40'0 0.0
2014-Sep-25 16:33N 54°24' E 018°40'0 0.0
2014-Sep-25 15:33N 54°24' E 018°40'0 0.0
2014-Sep-25 14:33N 54°24' E 018°40'0 0.0
2014-Sep-25 13:33N 54°24' E 018°40'0 0.0
2014-Sep-25 12:33N 54°24' E 018°40'0 0.0
2014-Sep-25 11:33N 54°24' E 018°40'0 0.0
2014-Sep-25 10:33N 54°24' E 018°40'0 0.0
2014-Sep-25 09:33N 54°24' E 018°40'0 0.0
2014-Sep-25 08:33N 54°24' E 018°40'0 0.0
2014-Sep-25 07:33N 54°24' E 018°40'0 0.0
2014-Sep-25 06:33N 54°24' E 018°40'0 0.0
2014-Sep-25 05:33N 54°24' E 018°40'0 0.0
2014-Sep-25 04:33N 54°24' E 018°40'0 0.0
2014-Sep-25 03:33N 54°24' E 018°40'0 0.0
2014-Sep-25 02:33N 54°24' E 018°40'0 0.0
2014-Sep-25 01:30N 54°24' E 018°40'0 0.0
2014-Sep-25 00:33N 54°24' E 018°40'0 0.0
2014-Sep-24 23:33N 54°24' E 018°40'0 0.0
2014-Sep-24 22:33N 54°24' E 018°40'0 0.0
2014-Sep-24 21:33N 54°24' E 018°40'0 0.0
2014-Sep-24 20:33N 54°24' E 018°40'0 0.0
2014-Sep-24 19:33N 54°24' E 018°40'0 0.0
2014-Sep-24 18:33N 54°24' E 018°40'0 0.0
2014-Sep-24 17:33N 54°24' E 018°40'0 0.0
2014-Sep-24 16:33N 54°24' E 018°40'0 0.0
2014-Sep-24 15:33N 54°24' E 018°40'0 0.0
2014-Sep-24 14:33N 54°24' E 018°40'0 0.0
2014-Sep-24 13:33N 54°24' E 018°40'0 0.0
2014-Sep-24 12:33N 54°24' E 018°40'0 0.0
2014-Sep-24 11:33N 54°24' E 018°40'0 0.0
2014-Sep-24 10:33N 54°24' E 018°40'0 0.0
2014-Sep-24 09:33N 54°24' E 018°40'0 0.0
2014-Sep-24 08:33N 54°24' E 018°40'0 0.0
2014-Sep-24 07:33N 54°24' E 018°40'0 0.0
2014-Sep-24 06:33N 54°24' E 018°40'0 0.0
2014-Sep-24 05:33N 54°24' E 018°40'0 0.0
2014-Sep-24 04:33N 54°24' E 018°40'0 0.0
2014-Sep-24 03:33N 54°24' E 018°40'0 0.0
2014-Sep-24 02:33N 54°24' E 018°40'0 0.0
2014-Sep-24 01:33N 54°24' E 018°40'0 0.0
2014-Sep-24 00:33N 54°24' E 018°40'0 0.0
2014-Sep-23 23:33N 54°24' E 018°40'0 0.0
2014-Sep-23 21:33N 54°24' E 018°40'0 0.0
2014-Sep-23 20:33N 54°24' E 018°40'0 0.0
2014-Sep-23 19:33N 54°24' E 018°40'0 0.0
2014-Sep-23 18:33N 54°24' E 018°40'0 0.0
2014-Sep-23 17:33N 54°24' E 018°40'0 0.0
2014-Sep-23 16:33N 54°24' E 018°40'0 0.0
2014-Sep-23 15:33N 54°24' E 018°40'0 0.0
2014-Sep-23 14:33N 54°24' E 018°40'0 0.0
2014-Sep-23 13:33N 54°24' E 018°40'0 0.0
2014-Sep-23 12:33N 54°24' E 018°40'0 0.0
2014-Sep-23 11:33N 54°24' E 018°40'0 0.0
2014-Sep-23 10:33N 54°24' E 018°40'0 0.0
2014-Sep-23 09:33N 54°24' E 018°40'0 0.0
2014-Sep-23 08:33N 54°24' E 018°40'0 0.0
2014-Sep-23 07:33N 54°24' E 018°40'0 0.0
2014-Sep-23 06:33N 54°24' E 018°40'0 0.0
2014-Sep-23 05:33N 54°24' E 018°40'0 0.0
2014-Sep-23 04:33N 54°24' E 018°40'0 0.0
2014-Sep-23 03:33N 54°24' E 018°40'0 0.0
2014-Sep-23 02:33N 54°24' E 018°40'0 0.0
2014-Sep-23 01:33N 54°24' E 018°40'0 0.0
2014-Sep-23 00:33N 54°24' E 018°40'0 0.0
2014-Sep-22 23:33N 54°24' E 018°40'0 0.0
2014-Sep-22 22:33N 54°24' E 018°40'0 0.0
2014-Sep-22 21:33N 54°24' E 018°40'0 0.0
2014-Sep-22 20:33N 54°24' E 018°40'0 0.0
2014-Sep-22 19:33N 54°24' E 018°40'0 0.0
2014-Sep-22 18:33N 54°24' E 018°40'0 0.0
2014-Sep-22 17:33N 54°24' E 018°40'0 0.0
2014-Sep-22 16:33N 54°24' E 018°40'0 0.0
2014-Sep-22 15:33N 54°24' E 018°40'0 0.0
2014-Sep-22 14:33N 54°24' E 018°40'0 0.0
2014-Sep-22 13:33N 54°24' E 018°40'0 0.0
2014-Sep-22 12:33N 54°24' E 018°40'0 0.0
2014-Sep-22 11:33N 54°24' E 018°40'0 0.0
2014-Sep-22 10:33N 54°24' E 018°40'0 0.0
2014-Sep-22 09:33N 54°24' E 018°40'0 0.0
2014-Sep-22 08:33N 54°24' E 018°40'0 0.0
2014-Sep-22 07:33N 54°24' E 018°40'0 0.0
2014-Sep-22 06:33N 54°24' E 018°40'0 0.0
2014-Sep-22 05:30N 54°24' E 018°40'0 0.0
2014-Sep-22 04:33N 54°24' E 018°40'0 0.0
2014-Sep-22 03:33N 54°24' E 018°40'3 3.1
2014-Sep-22 02:33N 54°27' E 018°41'1 0.7
2014-Sep-22 01:28N 54°28' E 018°41'0 0.0
2014-Sep-22 00:31N 54°28' E 018°41'0 0.0
2014-Sep-21 23:31N 54°28' E 018°41'0 0.0
2014-Sep-21 22:31N 54°28' E 018°41'0 0.0
2014-Sep-21 21:31N 54°28' E 018°41'0 0.0
2014-Sep-21 20:31N 54°28' E 018°41'0 0.1
2014-Sep-21 19:31N 54°28' E 018°41'0 0.0
2014-Sep-21 18:31N 54°28' E 018°41'0 0.0
2014-Sep-21 17:31N 54°28' E 018°41'0 0.2
2014-Sep-21 16:31N 54°28' E 018°40'0 0.0
2014-Sep-21 15:31N 54°28' E 018°40'0 0.1
2014-Sep-21 14:31N 54°28' E 018°41'0 0.0
2014-Sep-21 13:31N 54°28' E 018°41'0 0.0
2014-Sep-21 12:31N 54°28' E 018°41'0 0.0
2014-Sep-21 11:31N 54°28' E 018°40'0 0.0
2014-Sep-21 10:31N 54°28' E 018°40'0 0.0
2014-Sep-21 09:31N 54°28' E 018°40'0 0.0
2014-Sep-21 08:31N 54°28' E 018°40'0 0.0
2014-Sep-21 07:31N 54°28' E 018°40'0 0.0
2014-Sep-21 06:31N 54°28' E 018°40'0 0.0
2014-Sep-21 05:31N 54°28' E 018°40'0 0.0
2014-Sep-21 04:31N 54°28' E 018°41'0 0.1
2014-Sep-21 03:31N 54°28' E 018°41'0 0.0
2014-Sep-21 02:31N 54°28' E 018°41'0 0.0
2014-Sep-21 01:31N 54°28' E 018°41'0 0.0
2014-Sep-21 00:31N 54°28' E 018°41'0 0.0
2014-Sep-20 23:31N 54°28' E 018°41'0 0.0
2014-Sep-20 22:31N 54°28' E 018°41'0 0.1
2014-Sep-20 21:31N 54°28' E 018°40'0 0.0
2014-Sep-20 20:31N 54°28' E 018°40'0 0.0
2014-Sep-20 19:31N 54°28' E 018°40'0 0.0
2014-Sep-20 18:31N 54°28' E 018°40'0 0.0
2014-Sep-20 17:31N 54°28' E 018°40'0 0.0
2014-Sep-20 16:31N 54°28' E 018°40'0 0.0
2014-Sep-20 15:31N 54°28' E 018°40'0 0.0
2014-Sep-20 14:31N 54°28' E 018°40'0 0.0
2014-Sep-20 13:31N 54°28' E 018°40'0 0.1
2014-Sep-20 12:31N 54°28' E 018°40'0 0.1
2014-Sep-20 11:31N 54°28' E 018°41'0 0.0
2014-Sep-20 10:31N 54°28' E 018°40'0 0.0
2014-Sep-20 09:31N 54°28' E 018°40'0 0.0
2014-Sep-20 08:31N 54°28' E 018°40'  
Track history (hours):
 
Tides and Currents Weather Stations Pressure Air Temp Water Temp Dewpoint Dewpoint Depression Visibility Wind Speed Wind Dir Waves Ship Positions

Liberty Island

Last reported at 2014-Sep-30 07:33 UTC. Time now 2014-Oct-01 08:21 UTC.
Position N 50°26' W 000°33'.

Length 178 m; draft 9.8 m.

Type: Cargo ship. MMSI: 355886000.

Date/timePositionNaut miles runAvg speedWind from/ knotsBaromVisibWave heightAir tempDewpointWater temp
2014-Sep-30 07:33N 50°26' W 000°33'2612.9
2014-Sep-30 05:32N 50°34' E 000°06'1212.6
2014-Sep-30 04:33N 50°37' E 000°25'1211.8
2014-Sep-30 03:33N 50°42' E 000°42'1111.0
2014-Sep-30 02:33N 50°48' E 000°57'2110.5
2014-Sep-30 00:33N 51°02' E 001°22'1312.9
2014-Sep-29 23:34N 51°10' E 001°38'1313.3
2014-Sep-29 22:34N 51°20' E 001°51'1313.0
2014-Sep-29 21:33N 51°31' E 002°03'1212.3
2014-Sep-29 20:34N 51°40' E 002°16'1211.5
2014-Sep-29 19:33N 51°49' E 002°28'2110.1
2014-Sep-29 17:32N 52°08' E 002°38'12 9.8
2014-Sep-29 16:21N 52°19' E 002°44'810.7
2014-Sep-29 15:33N 52°27' E 002°51'3712.2
2014-Sep-29 12:33N 52°59' E 003°18'5911.9
2014-Sep-29 07:33N 53°53' E 004°02'1211.8
2014-Sep-29 06:34N 54°01' E 004°16'1212.1
2014-Sep-29 05:33N 54°12' E 004°25'1312.5
2014-Sep-29 04:33N 54°23' E 004°36'1312.5
2014-Sep-29 03:31N 54°33' E 004°48'21011.5
2014-Sep-28 09:15N 57°24' E 008°26'3810.3
2014-Sep-28 05:33N 57°42' E 009°29'1010.0
2014-Sep-28 04:31N 57°46' E 009°47'10 9.8
2014-Sep-28 03:32N 57°47' E 010°05'1110.8
2014-Sep-28 02:29N 57°47' E 010°26'910.0
2014-Sep-28 01:33N 57°48' E 010°43'10 9.7
2014-Sep-28 00:31N 57°42' E 010°58'1010.5
2014-Sep-27 23:33N 57°35' E 011°12'1111.0
2014-Sep-27 22:33N 57°28' E 011°27'1211.5
2014-Sep-27 21:33N 57°17' E 011°34'1111.2
2014-Sep-27 20:33N 57°06' E 011°41'137 9.6
2014-Sep-27 06:16N 54°52' E 010°53'7 9.8
2014-Sep-27 05:33N 54°45' E 010°53'9 9.4
2014-Sep-27 04:33N 54°39' E 011°04'10 9.8
2014-Sep-27 03:33N 54°34' E 011°19'10 9.9
2014-Sep-27 02:33N 54°30' E 011°35'1010.4
2014-Sep-27 01:33N 54°27' E 011°52'1010.2
2014-Sep-27 00:33N 54°27' E 012°10'1010.2
2014-Sep-26 23:33N 54°37' E 012°15'9 9.3
2014-Sep-26 22:33N 54°42' E 012°28'1110.5
2014-Sep-26 21:33N 54°48' E 012°44'1110.9
2014-Sep-26 20:33N 54°52' E 013°02'1111.0
2014-Sep-26 19:33N 54°53' E 013°20'1110.8
2014-Sep-26 18:33N 54°53' E 013°39'1111.1
2014-Sep-26 17:33N 54°47' E 013°55'1110.9
2014-Sep-26 16:33N 54°41' E 014°11'1410.7
2014-Sep-26 15:14N 54°39' E 014°35'1110.9
2014-Sep-26 14:13N 54°40' E 014°54'711.3
2014-Sep-26 13:33N 54°42' E 015°07'1211.3
2014-Sep-26 12:30N 54°43' E 015°27'1211.6
2014-Sep-26 11:28N 54°45' E 015°48'3811.8
2014-Sep-26 08:14N 54°51' E 016°53'1311.7
2014-Sep-26 07:10N 54°54' E 017°15'711.7
2014-Sep-26 06:33N 54°56' E 017°27'1111.4
2014-Sep-26 05:33N 54°57' E 017°46'1111.5
2014-Sep-26 04:33N 54°58' E 018°06'1111.1
2014-Sep-26 03:33N 54°59' E 018°26'1010.3
2014-Sep-26 02:33N 54°54' E 018°41'1111.2
2014-Sep-26 01:33N 54°47' E 018°55'1111.1
2014-Sep-26 00:33N 54°36' E 018°54'1211.8
2014-Sep-25 23:33N 54°27' E 018°40'2 2.4
2014-Sep-25 22:33N 54°24' E 018°40'0 0.1
2014-Sep-25 21:33N 54°24' E 018°40'0 0.0
2014-Sep-25 20:33N 54°24' E 018°40'0 0.0
2014-Sep-25 19:33N 54°24' E 018°40'0 0.0
2014-Sep-25 18:33N 54°24' E 018°40'0 0.0
2014-Sep-25 17:33N 54°24' E 018°40'0 0.0
2014-Sep-25 16:33N 54°24' E 018°40'0 0.0
2014-Sep-25 15:33N 54°24' E 018°40'0 0.0
2014-Sep-25 14:33N 54°24' E 018°40'0 0.0
2014-Sep-25 13:33N 54°24' E 018°40'0 0.0
2014-Sep-25 12:33N 54°24' E 018°40'0 0.0
2014-Sep-25 11:33N 54°24' E 018°40'0 0.0
2014-Sep-25 10:33N 54°24' E 018°40'0 0.0
2014-Sep-25 09:33N 54°24' E 018°40'0 0.0
2014-Sep-25 08:33N 54°24' E 018°40'0 0.0
2014-Sep-25 07:33N 54°24' E 018°40'0 0.0
2014-Sep-25 06:33N 54°24' E 018°40'0 0.0
2014-Sep-25 05:33N 54°24' E 018°40'0 0.0
2014-Sep-25 04:33N 54°24' E 018°40'0 0.0
2014-Sep-25 03:33N 54°24' E 018°40'0 0.0
2014-Sep-25 02:33N 54°24' E 018°40'0 0.0
2014-Sep-25 01:30N 54°24' E 018°40'0 0.0
2014-Sep-25 00:33N 54°24' E 018°40'0 0.0
2014-Sep-24 23:33N 54°24' E 018°40'0 0.0
2014-Sep-24 22:33N 54°24' E 018°40'0 0.0
2014-Sep-24 21:33N 54°24' E 018°40'0 0.0
2014-Sep-24 20:33N 54°24' E 018°40'0 0.0
2014-Sep-24 19:33N 54°24' E 018°40'0 0.0
2014-Sep-24 18:33N 54°24' E 018°40'0 0.0
2014-Sep-24 17:33N 54°24' E 018°40'0 0.0
2014-Sep-24 16:33N 54°24' E 018°40'0 0.0
2014-Sep-24 15:33N 54°24' E 018°40'0 0.0
2014-Sep-24 14:33N 54°24' E 018°40'0 0.0
2014-Sep-24 13:33N 54°24' E 018°40'0 0.0
2014-Sep-24 12:33N 54°24' E 018°40'0 0.0
2014-Sep-24 11:33N 54°24' E 018°40'0 0.0
2014-Sep-24 10:33N 54°24' E 018°40'0 0.0
2014-Sep-24 09:33N 54°24' E 018°40'0 0.0
2014-Sep-24 08:33N 54°24' E 018°40'0 0.0
2014-Sep-24 07:33N 54°24' E 018°40'0 0.0
2014-Sep-24 06:33N 54°24' E 018°40'0 0.0
2014-Sep-24 05:33N 54°24' E 018°40'0 0.0
2014-Sep-24 04:33N 54°24' E 018°40'0 0.0
2014-Sep-24 03:33N 54°24' E 018°40'0 0.0
2014-Sep-24 02:33N 54°24' E 018°40'0 0.0
2014-Sep-24 01:33N 54°24' E 018°40'0 0.0
2014-Sep-24 00:33N 54°24' E 018°40'0 0.0
2014-Sep-23 23:33N 54°24' E 018°40'0 0.0
2014-Sep-23 21:33N 54°24' E 018°40'0 0.0
2014-Sep-23 20:33N 54°24' E 018°40'0 0.0
2014-Sep-23 19:33N 54°24' E 018°40'0 0.0
2014-Sep-23 18:33N 54°24' E 018°40'0 0.0
2014-Sep-23 17:33N 54°24' E 018°40'0 0.0
2014-Sep-23 16:33N 54°24' E 018°40'0 0.0
2014-Sep-23 15:33N 54°24' E 018°40'0 0.0
2014-Sep-23 14:33N 54°24' E 018°40'0 0.0
2014-Sep-23 13:33N 54°24' E 018°40'0 0.0
2014-Sep-23 12:33N 54°24' E 018°40'0 0.0
2014-Sep-23 11:33N 54°24' E 018°40'0 0.0
2014-Sep-23 10:33N 54°24' E 018°40'0 0.0
2014-Sep-23 09:33N 54°24' E 018°40'0 0.0
2014-Sep-23 08:33N 54°24' E 018°40'0 0.0
2014-Sep-23 07:33N 54°24' E 018°40'0 0.0
2014-Sep-23 06:33N 54°24' E 018°40'0 0.0
2014-Sep-23 05:33N 54°24' E 018°40'0 0.0
2014-Sep-23 04:33N 54°24' E 018°40'0 0.0
2014-Sep-23 03:33N 54°24' E 018°40'0 0.0
2014-Sep-23 02:33N 54°24' E 018°40'0 0.0
2014-Sep-23 01:33N 54°24' E 018°40'0 0.0
2014-Sep-23 00:33N 54°24' E 018°40'0 0.0
2014-Sep-22 23:33N 54°24' E 018°40'0 0.0
2014-Sep-22 22:33N 54°24' E 018°40'0 0.0
2014-Sep-22 21:33N 54°24' E 018°40'0 0.0
2014-Sep-22 20:33N 54°24' E 018°40'0 0.0
2014-Sep-22 19:33N 54°24' E 018°40'0 0.0
2014-Sep-22 18:33N 54°24' E 018°40'0 0.0
2014-Sep-22 17:33N 54°24' E 018°40'0 0.0
2014-Sep-22 16:33N 54°24' E 018°40'0 0.0
2014-Sep-22 15:33N 54°24' E 018°40'0 0.0
2014-Sep-22 14:33N 54°24' E 018°40'0 0.0
2014-Sep-22 13:33N 54°24' E 018°40'0 0.0
2014-Sep-22 12:33N 54°24' E 018°40'0 0.0
2014-Sep-22 11:33N 54°24' E 018°40'0 0.0
2014-Sep-22 10:33N 54°24' E 018°40'0 0.0
2014-Sep-22 09:33N 54°24' E 018°40'0 0.0
2014-Sep-22 08:33N 54°24' E 018°40'0 0.0
2014-Sep-22 07:33N 54°24' E 018°40'0 0.0
2014-Sep-22 06:33N 54°24' E 018°40'0 0.0
2014-Sep-22 05:30N 54°24' E 018°40'0 0.0
2014-Sep-22 04:33N 54°24' E 018°40'0 0.0
2014-Sep-22 03:33N 54°24' E 018°40'3 3.1
2014-Sep-22 02:33N 54°27' E 018°41'1 0.7
2014-Sep-22 01:28N 54°28' E 018°41'0 0.0
2014-Sep-22 00:31N 54°28' E 018°41'0 0.0
2014-Sep-21 23:31N 54°28' E 018°41'0 0.0
2014-Sep-21 22:31N 54°28' E 018°41'0 0.0
2014-Sep-21 21:31N 54°28' E 018°41'0 0.0
2014-Sep-21 20:31N 54°28' E 018°41'0 0.1
2014-Sep-21 19:31N 54°28' E 018°41'0 0.0
2014-Sep-21 18:31N 54°28' E 018°41'0 0.0
2014-Sep-21 17:31N 54°28' E 018°41'0 0.2
2014-Sep-21 16:31N 54°28' E 018°40'0 0.0
2014-Sep-21 15:31N 54°28' E 018°40'0 0.1
2014-Sep-21 14:31N 54°28' E 018°41'0 0.0
2014-Sep-21 13:31N 54°28' E 018°41'0 0.0
2014-Sep-21 12:31N 54°28' E 018°41'0 0.0
2014-Sep-21 11:31N 54°28' E 018°40'0 0.0
2014-Sep-21 10:31N 54°28' E 018°40'0 0.0
2014-Sep-21 09:31N 54°28' E 018°40'0 0.0
2014-Sep-21 08:31N 54°28' E 018°40'0 0.0
2014-Sep-21 07:31N 54°28' E 018°40'0 0.0
2014-Sep-21 06:31N 54°28' E 018°40'0 0.0
2014-Sep-21 05:31N 54°28' E 018°40'0 0.0
2014-Sep-21 04:31N 54°28' E 018°41'0 0.1
2014-Sep-21 03:31N 54°28' E 018°41'0 0.0
2014-Sep-21 02:31N 54°28' E 018°41'0 0.0
2014-Sep-21 01:31N 54°28' E 018°41'0 0.0
2014-Sep-21 00:31N 54°28' E 018°41'0 0.0
2014-Sep-20 23:31N 54°28' E 018°41'0 0.0
2014-Sep-20 22:31N 54°28' E 018°41'0 0.1
2014-Sep-20 21:31N 54°28' E 018°40'0 0.0
2014-Sep-20 20:31N 54°28' E 018°40'0 0.0
2014-Sep-20 19:31N 54°28' E 018°40'0 0.0
2014-Sep-20 18:31N 54°28' E 018°40'0 0.0
2014-Sep-20 17:31N 54°28' E 018°40'0 0.0
2014-Sep-20 16:31N 54°28' E 018°40'0 0.0
2014-Sep-20 15:31N 54°28' E 018°40'0 0.0
2014-Sep-20 14:31N 54°28' E 018°40'0 0.0
2014-Sep-20 13:31N 54°28' E 018°40'0 0.1
2014-Sep-20 12:31N 54°28' E 018°40'0 0.1
2014-Sep-20 11:31N 54°28' E 018°41'0 0.0
2014-Sep-20 10:31N 54°28' E 018°40'0 0.0
2014-Sep-20 09:31N 54°28' E 018°40'0 0.0
2014-Sep-20 08:31N 54°28' E 018°40'  

Dump ship's entire track history